Time;durP1;ratioP1;P1;durP2;ratioP2;P2;SDS_P1;SDS_P2;PMS_P1;PMS_P2;Temp;Humidity;BMP_temperature;BMP_pressure;BME280_temperature;BME280_humidity;BME280_pressure;Samples;Min_cycle;Max_cycle;Signal;HPM_P1;HPM_P2
2022/11/16 00:00:47;;;;;;;15.00;10.23;;;;;;;;;;5068685;28;20109;-66
2022/11/16 00:03:13;;;;;;;14.10;9.83;;;;;;;;;;5069613;28;20047;-66
2022/11/16 00:05:39;;;;;;;14.17;9.50;;;;;;;;;;5070246;28;20044;-65
2022/11/16 00:08:05;;;;;;;16.23;10.13;;;;;;;;;;5069948;28;20091;-66
2022/11/16 00:10:31;;;;;;;13.57;9.70;;;;;;;;;;5064967;28;20103;-65
2022/11/16 00:12:57;;;;;;;16.50;9.80;;;;;;;;;;5050935;28;20622;-66
2022/11/16 00:15:23;;;;;;;15.30;9.73;;;;;;;;;;5052196;28;20048;-66
2022/11/16 00:17:49;;;;;;;15.17;9.67;;;;;;;;;;5049929;28;20095;-66
2022/11/16 00:20:15;;;;;;;18.10;11.43;;;;;;;;;;5049838;28;20056;-65
2022/11/16 00:22:41;;;;;;;17.83;11.43;;;;;;;;;;5061306;28;20052;-66
2022/11/16 00:25:08;;;;;;;15.57;11.70;;;;;;;;;;5070611;28;20040;-65
2022/11/16 00:27:34;;;;;;;18.23;11.83;;;;;;;;;;5064425;28;20057;-65
2022/11/16 00:30:00;;;;;;;20.00;12.37;;;;;;;;;;5050626;28;20102;-65
2022/11/16 00:32:26;;;;;;;16.67;11.33;;;;;;;;;;5053675;28;20418;-66
2022/11/16 00:34:52;;;;;;;16.67;10.67;;;;;;;;;;5069307;28;20040;-65
2022/11/16 00:37:18;;;;;;;15.37;12.00;;;;;;;;;;5070203;28;20422;-66
2022/11/16 00:39:44;;;;;;;22.73;12.27;;;;;;;;;;5068699;28;20101;-65
2022/11/16 00:42:10;;;;;;;24.07;14.87;;;;;;;;;;5063936;28;20045;-66
2022/11/16 00:44:36;;;;;;;19.57;11.93;;;;;;;;;;5050112;28;20461;-65
2022/11/16 00:47:02;;;;;;;15.70;11.03;;;;;;;;;;5051886;28;20041;-66
2022/11/16 00:49:28;;;;;;;20.20;12.20;;;;;;;;;;5070760;28;20089;-66
2022/11/16 00:51:54;;;;;;;25.40;13.67;;;;;;;;;;5068020;28;20051;-66
2022/11/16 00:54:21;;;;;;;29.03;15.13;;;;;;;;;;5048715;28;20045;-66
2022/11/16 00:56:47;;;;;;;19.67;13.47;;;;;;;;;;5050439;28;20407;-65
2022/11/16 00:59:13;;;;;;;20.33;13.43;;;;;;;;;;5067833;28;20067;-66
2022/11/16 01:01:39;;;;;;;23.97;15.00;;;;;;;;;;5067071;28;20045;-65
2022/11/16 01:04:05;;;;;;;19.87;13.20;;;;;;;;;;5070034;28;20040;-66
2022/11/16 01:06:31;;;;;;;21.50;15.13;;;;;;;;;;5069164;28;20051;-65
2022/11/16 01:08:57;;;;;;;30.53;16.73;;;;;;;;;;5069976;28;20041;-65
2022/11/16 01:14:08;;;;;;;25.03;15.13;;;;;;;;;;5049989;28;20041;-65
2022/11/16 01:16:34;;;;;;;30.43;17.60;;;;;;;;;;5066569;28;20051;-66
2022/11/16 01:19:01;;;;;;;29.70;15.63;;;;;;;;;;5069893;28;20044;-65
2022/11/16 01:21:27;;;;;;;37.37;17.60;;;;;;;;;;5052897;28;20045;-66
2022/11/16 01:23:54;;;;;;;40.60;18.27;;;;;;;;;;5049498;28;20415;-66
2022/11/16 01:26:20;;;;;;;27.73;17.50;;;;;;;;;;5049524;28;20045;-66
2022/11/16 01:28:46;;;;;;;30.47;17.63;;;;;;;;;;5048675;28;20355;-66
2022/11/16 01:31:12;;;;;;;28.73;18.23;;;;;;;;;;5049302;28;20052;-66
2022/11/16 01:33:38;;;;;;;37.33;21.37;;;;;;;;;;5061234;28;20177;-66
2022/11/16 01:36:09;;;;;;;38.23;21.90;;;;;;;;;;5069430;28;20519;-66
2022/11/16 01:38:35;;;;;;;38.50;21.67;;;;;;;;;;5061468;28;20431;-65
2022/11/16 01:41:01;;;;;;;31.80;20.00;;;;;;;;;;5059161;28;20044;-66
2022/11/16 01:43:27;;;;;;;37.33;20.33;;;;;;;;;;5069568;28;20056;-66
2022/11/16 01:45:53;;;;;;;46.23;22.53;;;;;;;;;;5053421;28;20567;-65
2022/11/16 01:48:21;;;;;;;44.17;22.10;;;;;;;;;;5067734;28;20131;-66
2022/11/16 01:50:48;;;;;;;38.23;20.07;;;;;;;;;;5069308;28;20063;-66
2022/11/16 01:53:14;;;;;;;46.70;22.93;;;;;;;;;;5066904;28;20052;-65
2022/11/16 01:55:41;;;;;;;29.83;17.80;;;;;;;;;;5069081;28;20051;-65
2022/11/16 01:58:08;;;;;;;37.83;21.13;;;;;;;;;;5067459;28;20055;-64
2022/11/16 02:00:34;;;;;;;36.97;21.30;;;;;;;;;;5059389;28;20037;-65
2022/11/16 02:03:00;;;;;;;32.60;19.30;;;;;;;;;;5049088;28;20036;-65
2022/11/16 02:05:59;;;;;;;33.10;19.53;;;;;;;;;;5061491;28;20044;-65
2022/11/16 02:11:23;;;;;;;28.17;18.77;;;;;;;;;;5068844;28;20053;-65
2022/11/16 02:14:03;;;;;;;42.53;21.77;;;;;;;;;;5068333;28;20581;-66
2022/11/16 02:16:42;;;;;;;31.00;18.07;;;;;;;;;;5068814;28;20119;-66
2022/11/16 02:19:18;;;;;;;33.40;19.17;;;;;;;;;;5067518;28;20099;-65
2022/11/16 02:22:04;;;;;;;37.07;19.33;;;;;;;;;;5068682;28;20040;-65
2022/11/16 02:24:49;;;;;;;32.47;18.07;;;;;;;;;;5049237;28;20063;-66
2022/11/16 02:27:15;;;;;;;40.80;19.13;;;;;;;;;;5047887;28;20052;-66
2022/11/16 02:29:47;;;;;;;33.67;18.57;;;;;;;;;;5049184;28;20440;-66
2022/11/16 02:32:16;;;;;;;44.00;20.97;;;;;;;;;;5066423;28;20052;-66
2022/11/16 02:34:44;;;;;;;34.83;18.17;;;;;;;;;;5068600;28;20550;-66
2022/11/16 02:37:13;;;;;;;29.17;18.13;;;;;;;;;;5062418;28;20488;-66
2022/11/16 02:39:41;;;;;;;38.67;20.20;;;;;;;;;;5065424;28;20037;-66
2022/11/16 02:42:10;;;;;;;31.43;17.87;;;;;;;;;;5066961;28;20068;-66
2022/11/16 02:44:39;;;;;;;33.43;18.83;;;;;;;;;;5068425;28;20048;-66
2022/11/16 02:47:08;;;;;;;30.63;16.83;;;;;;;;;;5067545;28;20563;-66
2022/11/16 02:49:35;;;;;;;33.27;18.47;;;;;;;;;;5068079;28;20106;-66
2022/11/16 02:52:03;;;;;;;36.73;19.43;;;;;;;;;;5067930;28;20147;-66
2022/11/16 02:54:29;;;;;;;44.70;21.60;;;;;;;;;;5067743;28;20040;-65
2022/11/16 02:56:57;;;;;;;39.50;18.97;;;;;;;;;;5068178;28;20070;-64
2022/11/16 02:59:25;;;;;;;33.57;18.13;;;;;;;;;;5062836;28;20124;-64
2022/11/16 03:01:56;;;;;;;32.87;18.90;;;;;;;;;;5051260;28;20041;-64
2022/11/16 03:04:42;;;;;;;47.60;21.83;;;;;;;;;;5064774;28;20049;-65
2022/11/16 03:07:11;;;;;;;33.87;18.13;;;;;;;;;;5067825;28;20052;-65
2022/11/16 03:09:38;;;;;;;33.40;16.13;;;;;;;;;;5063822;28;20088;-65
2022/11/16 03:12:07;;;;;;;38.37;20.50;;;;;;;;;;5066942;28;20057;-64
2022/11/16 03:14:33;;;;;;;32.53;17.13;;;;;;;;;;5067267;28;20049;-65
2022/11/16 03:17:00;;;;;;;44.50;21.70;;;;;;;;;;5066033;28;20072;-64
2022/11/16 03:19:31;;;;;;;33.07;18.90;;;;;;;;;;5067804;28;20091;-64
2022/11/16 03:22:01;;;;;;;40.27;20.03;;;;;;;;;;5067154;28;20127;-65
2022/11/16 03:24:28;;;;;;;38.53;19.13;;;;;;;;;;5068103;28;20090;-64
2022/11/16 03:27:12;;;;;;;35.43;19.50;;;;;;;;;;5067383;28;20057;-64
2022/11/16 03:29:38;;;;;;;;;;;;;;;;;;5068741;28;20048;-64
2022/11/16 03:32:18;;;;;;;44.33;20.83;;;;;;;;;;5052156;28;19925;-64
2022/11/16 03:35:00;;;;;;;33.77;18.93;;;;;;;;;;5047998;28;20041;-64
2022/11/16 03:37:26;;;;;;;31.10;17.33;;;;;;;;;;5055712;28;20044;-64
2022/11/16 03:39:53;;;;;;;32.97;18.17;;;;;;;;;;5071742;28;20438;-64
2022/11/16 03:42:20;;;;;;;28.20;17.20;;;;;;;;;;5062229;28;20051;-64
2022/11/16 03:44:47;;;;;;;29.60;17.60;;;;;;;;;;5051775;28;20044;-64
2022/11/16 03:47:14;;;;;;;40.13;20.70;;;;;;;;;;5049787;28;20593;-64
2022/11/16 03:49:43;;;;;;;35.50;19.83;;;;;;;;;;5051146;28;20049;-64
2022/11/16 03:52:09;;;;;;;31.67;18.33;;;;;;;;;;5051079;28;20565;-64
2022/11/16 03:54:35;;;;;;;29.07;17.87;;;;;;;;;;5051404;28;20045;-64
2022/11/16 03:57:01;;;;;;;40.27;21.37;;;;;;;;;;5062176;28;20575;-64
2022/11/16 03:59:27;;;;;;;31.43;18.93;;;;;;;;;;5071174;28;20049;-64
2022/11/16 04:01:53;;;;;;;33.03;18.80;;;;;;;;;;5061228;28;20052;-64
2022/11/16 04:29:11;;;;;;;53.83;23.30;;;;;;;;;;5050761;28;20491;-64
2022/11/16 04:39:51;;;;;;;46.60;24.33;;;;;;;;;;5069146;28;20048;-64
2022/11/16 04:42:21;;;;;;;45.20;23.57;;;;;;;;;;5068903;28;20102;-64
2022/11/16 04:47:31;;;;;;;44.47;23.60;;;;;;;;;;5055414;28;20048;-64
2022/11/16 04:49:57;;;;;;;35.83;21.17;;;;;;;;;;5069456;28;20075;-64
2022/11/16 04:52:23;;;;;;;33.50;21.47;;;;;;;;;;5069203;28;20040;-64
2022/11/16 04:54:49;;;;;;;35.23;21.37;;;;;;;;;;5069624;28;20102;-65
2022/11/16 04:57:15;;;;;;;45.60;23.97;;;;;;;;;;5067517;28;20411;-65
2022/11/16 04:59:41;;;;;;;46.20;25.07;;;;;;;;;;5069943;28;20048;-64
2022/11/16 05:02:07;;;;;;;38.47;22.70;;;;;;;;;;5069277;28;20083;-64
2022/11/16 05:04:34;;;;;;;35.40;21.33;;;;;;;;;;5069271;28;20044;-66
2022/11/16 05:07:00;;;;;;;47.90;23.67;;;;;;;;;;5067741;28;20457;-65
2022/11/16 05:09:26;;;;;;;47.23;24.77;;;;;;;;;;5069231;28;20074;-67
2022/11/16 05:11:52;;;;;;;41.27;23.20;;;;;;;;;;5067840;28;20036;-65
2022/11/16 05:14:18;;;;;;;55.87;26.40;;;;;;;;;;5064126;28;20098;-65
2022/11/16 05:16:44;;;;;;;37.60;22.67;;;;;;;;;;5068729;28;20457;-66
2022/11/16 05:21:55;;;;;;;49.07;26.23;;;;;;;;;;5049469;28;20481;-66
2022/11/16 05:24:33;;;;;;;67.73;28.47;;;;;;;;;;5068232;28;20135;-67
2022/11/16 05:27:00;;;;;;;60.77;27.40;;;;;;;;;;5069108;28;20041;-66
2022/11/16 05:29:26;;;;;;;44.67;24.40;;;;;;;;;;5068256;28;20045;-66
2022/11/16 05:31:52;;;;;;;50.73;26.87;;;;;;;;;;5063626;28;20052;-66
2022/11/16 05:34:18;;;;;;;77.57;31.83;;;;;;;;;;5062935;28;20049;-66
2022/11/16 05:36:44;;;;;;;60.93;28.53;;;;;;;;;;5069096;28;20566;-66
2022/11/16 05:39:10;;;;;;;58.40;28.50;;;;;;;;;;5066917;28;20124;-66
2022/11/16 05:41:36;;;;;;;53.93;26.83;;;;;;;;;;5069095;28;20496;-67
2022/11/16 05:44:03;;;;;;;66.47;30.03;;;;;;;;;;5055637;28;20444;-66
2022/11/16 05:46:29;;;;;;;66.23;28.73;;;;;;;;;;5048503;28;20053;-66
2022/11/16 05:48:55;;;;;;;68.87;29.90;;;;;;;;;;5058679;28;20044;-66
2022/11/16 05:51:21;;;;;;;71.40;28.87;;;;;;;;;;5068778;28;20075;-67
2022/11/16 05:53:48;;;;;;;58.80;27.77;;;;;;;;;;5056208;28;20396;-66
2022/11/16 05:56:14;;;;;;;70.80;28.87;;;;;;;;;;5048996;28;20045;-67
2022/11/16 05:58:41;;;;;;;76.50;28.83;;;;;;;;;;5055580;28;20419;-67
2022/11/16 06:01:07;;;;;;;88.43;30.20;;;;;;;;;;5053483;28;20049;-67
2022/11/16 06:03:35;;;;;;;85.30;30.43;;;;;;;;;;5067234;28;20052;-67
2022/11/16 06:06:01;;;;;;;60.33;25.07;;;;;;;;;;5058071;28;20391;-67
2022/11/16 06:08:27;;;;;;;109.33;32.90;;;;;;;;;;5055733;28;20040;-66
2022/11/16 06:10:53;;;;;;;74.40;26.83;;;;;;;;;;5066870;28;20045;-66
2022/11/16 06:13:19;;;;;;;76.90;29.57;;;;;;;;;;5068251;28;20068;-66
2022/11/16 06:15:45;;;;;;;40.93;19.47;;;;;;;;;;5054857;28;20053;-66
2022/11/16 06:18:12;;;;;;;45.03;20.57;;;;;;;;;;5048421;28;20135;-66
2022/11/16 06:20:41;;;;;;;36.97;17.70;;;;;;;;;;5061305;28;20051;-66
2022/11/16 06:23:07;;;;;;;20.80;12.43;;;;;;;;;;5067127;28;20045;-66
2022/11/16 06:25:34;;;;;;;31.53;14.80;;;;;;;;;;5067455;28;20098;-66
2022/11/16 06:28:00;;;;;;;33.40;16.30;;;;;;;;;;5064088;28;20506;-66
2022/11/16 06:30:26;;;;;;;36.77;15.10;;;;;;;;;;5067378;28;20052;-66
2022/11/16 06:32:52;;;;;;;27.13;13.63;;;;;;;;;;5067712;28;20056;-66
2022/11/16 06:35:18;;;;;;;38.67;15.37;;;;;;;;;;5065824;28;20418;-67
2022/11/16 06:37:44;;;;;;;40.97;17.67;;;;;;;;;;5055199;28;20122;-66
2022/11/16 06:40:10;;;;;;;55.33;20.43;;;;;;;;;;5048257;28;20053;-66
2022/11/16 06:42:36;;;;;;;57.40;22.03;;;;;;;;;;5047685;28;20086;-66
2022/11/16 06:45:03;;;;;;;46.23;19.47;;;;;;;;;;5046132;28;20111;-66
2022/11/16 06:47:29;;;;;;;59.83;24.10;;;;;;;;;;5056105;28;20048;-66
2022/11/16 06:49:55;;;;;;;54.63;22.30;;;;;;;;;;5067914;28;20418;-66
2022/11/16 06:52:21;;;;;;;61.53;24.00;;;;;;;;;;5065322;28;20044;-66
2022/11/16 06:54:47;;;;;;;89.13;29.13;;;;;;;;;;5067943;28;20110;-66
2022/11/16 06:57:13;;;;;;;41.90;20.93;;;;;;;;;;5066841;28;20079;-66
2022/11/16 06:59:39;;;;;;;39.80;19.63;;;;;;;;;;5068162;28;20056;-66
2022/11/16 07:02:05;;;;;;;39.57;20.60;;;;;;;;;;5067297;28;20049;-65
2022/11/16 07:04:32;;;;;;;37.57;19.60;;;;;;;;;;5055863;28;20045;-65
2022/11/16 07:06:58;;;;;;;57.43;22.47;;;;;;;;;;5047936;28;20037;-65
2022/11/16 07:09:24;;;;;;;35.73;19.00;;;;;;;;;;5046605;28;20127;-65
2022/11/16 07:11:50;;;;;;;77.20;26.90;;;;;;;;;;5045871;28;20499;-65
2022/11/16 07:14:16;;;;;;;48.23;22.43;;;;;;;;;;5051810;28;20045;-65
2022/11/16 07:16:42;;;;;;;43.03;20.07;;;;;;;;;;5051522;28;20048;-65
2022/11/16 07:19:09;;;;;;;58.87;22.40;;;;;;;;;;5051579;28;20483;-65
2022/11/16 07:21:35;;;;;;;49.00;21.37;;;;;;;;;;5058645;28;20123;-65
2022/11/16 07:24:01;;;;;;;51.30;21.70;;;;;;;;;;5071011;28;20315;-65
2022/11/16 07:26:29;;;;;;;57.23;23.00;;;;;;;;;;5071571;28;20075;-65
2022/11/16 07:28:57;;;;;;;42.73;19.87;;;;;;;;;;5050347;28;20130;-65
2022/11/16 07:31:24;;;;;;;40.90;21.13;;;;;;;;;;5051480;28;20087;-65
2022/11/16 07:33:51;;;;;;;39.23;19.93;;;;;;;;;;5069728;28;20101;-66
2022/11/16 07:36:17;;;;;;;75.73;26.53;;;;;;;;;;5070935;28;20045;-65
2022/11/16 07:38:43;;;;;;;48.57;22.53;;;;;;;;;;5068320;28;20064;-65
2022/11/16 07:41:10;;;;;;;42.27;20.93;;;;;;;;;;5069728;28;20048;-65
2022/11/16 07:43:37;;;;;;;40.77;19.07;;;;;;;;;;5069197;28;20421;-65
2022/11/16 07:46:03;;;;;;;48.43;21.90;;;;;;;;;;5069349;28;20418;-65
2022/11/16 07:48:31;;;;;;;45.87;21.73;;;;;;;;;;5049553;28;20128;-65
2022/11/16 07:51:01;;;;;;;43.27;21.60;;;;;;;;;;5049811;28;20110;-65
2022/11/16 07:53:27;;;;;;;44.30;20.83;;;;;;;;;;5049271;28;20053;-65
2022/11/16 07:55:53;;;;;;;38.23;20.23;;;;;;;;;;5060177;28;20049;-65
2022/11/16 07:58:20;;;;;;;36.13;19.27;;;;;;;;;;5070434;28;20045;-65
2022/11/16 08:00:46;;;;;;;38.97;18.57;;;;;;;;;;5069271;28;20411;-65
2022/11/16 08:03:13;;;;;;;39.07;19.30;;;;;;;;;;5070760;28;20040;-65
2022/11/16 08:05:39;;;;;;;34.73;17.70;;;;;;;;;;5069515;28;20048;-65
2022/11/16 08:08:05;;;;;;;38.47;17.33;;;;;;;;;;5070010;28;20044;-65
2022/11/16 08:10:31;;;;;;;36.63;16.60;;;;;;;;;;5064191;28;20111;-65
2022/11/16 08:12:57;;;;;;;31.00;15.37;;;;;;;;;;5057099;28;20073;-65
2022/11/16 08:15:24;;;;;;;49.87;20.80;;;;;;;;;;5049692;28;20610;-65
2022/11/16 08:17:50;;;;;;;27.23;14.90;;;;;;;;;;5061407;28;20382;-65
2022/11/16 08:20:16;;;;;;;27.00;13.97;;;;;;;;;;5070287;28;20286;-65
2022/11/16 08:22:43;;;;;;;33.93;16.00;;;;;;;;;;5057084;28;20103;-65
2022/11/16 08:25:10;;;;;;;30.47;15.40;;;;;;;;;;5059906;28;20151;-65
2022/11/16 08:27:36;;;;;;;33.53;16.03;;;;;;;;;;5070183;28;20048;-65
2022/11/16 08:30:08;;;;;;;31.67;17.30;;;;;;;;;;5069149;28;20407;-65
2022/11/16 08:32:34;;;;;;;36.57;18.60;;;;;;;;;;5069845;28;20044;-65
2022/11/16 08:35:00;;;;;;;39.17;19.17;;;;;;;;;;5067837;28;20048;-65
2022/11/16 08:37:27;;;;;;;44.70;21.20;;;;;;;;;;5070192;28;20066;-65
2022/11/16 08:39:53;;;;;;;36.43;19.00;;;;;;;;;;5067580;28;20052;-65
2022/11/16 08:42:19;;;;;;;38.23;19.40;;;;;;;;;;5067097;28;20040;-65
2022/11/16 08:44:45;;;;;;;47.97;22.10;;;;;;;;;;5069050;28;20097;-65
2022/11/16 08:47:12;;;;;;;51.80;24.37;;;;;;;;;;5069630;28;20040;-65
2022/11/16 08:49:38;;;;;;;41.00;20.67;;;;;;;;;;5068360;28;20131;-65
2022/11/16 08:52:04;;;;;;;36.83;19.97;;;;;;;;;;5069772;28;20119;-65
2022/11/16 08:54:30;;;;;;;48.30;23.03;;;;;;;;;;5067873;28;20045;-65
2022/11/16 08:56:56;;;;;;;37.50;19.77;;;;;;;;;;5066226;28;20055;-65
2022/11/16 08:59:22;;;;;;;54.30;23.77;;;;;;;;;;5055398;28;20055;-65
2022/11/16 09:01:51;;;;;;;28.70;17.00;;;;;;;;;;5063684;28;20048;-65
2022/11/16 09:04:17;;;;;;;27.10;17.03;;;;;;;;;;5069309;28;20076;-65
2022/11/16 09:06:44;;;;;;;40.87;21.00;;;;;;;;;;5068485;28;20045;-65
2022/11/16 09:09:10;;;;;;;46.47;22.27;;;;;;;;;;5068857;28;20037;-65
2022/11/16 09:11:36;;;;;;;27.60;18.00;;;;;;;;;;5064632;28;20083;-65
2022/11/16 09:14:02;;;;;;;40.03;20.07;;;;;;;;;;5047666;28;20080;-65
2022/11/16 09:16:28;;;;;;;33.80;18.57;;;;;;;;;;5050997;28;20415;-65
2022/11/16 09:18:55;;;;;;;36.23;18.80;;;;;;;;;;5068580;28;20414;-65
2022/11/16 09:21:22;;;;;;;30.00;17.50;;;;;;;;;;5068034;28;20400;-65
2022/11/16 09:23:48;;;;;;;34.53;18.63;;;;;;;;;;5067965;28;20044;-65
2022/11/16 09:26:15;;;;;;;42.23;20.43;;;;;;;;;;5060399;28;20045;-65
2022/11/16 09:28:41;;;;;;;28.47;17.50;;;;;;;;;;5048976;28;20095;-65
2022/11/16 09:31:09;;;;;;;28.90;16.87;;;;;;;;;;5053809;28;20095;-65
2022/11/16 09:33:35;;;;;;;54.60;22.20;;;;;;;;;;5066417;28;20521;-65
2022/11/16 09:36:08;;;;;;;31.50;18.73;;;;;;;;;;5060273;28;20041;-65
2022/11/16 09:38:34;;;;;;;;;;;;;;;;;;5069281;28;20049;-65
2022/11/16 09:41:08;;;;;;;30.20;15.40;;;;;;;;;;5068538;28;19974;-65
2022/11/16 09:43:34;;;;;;;19.40;12.77;;;;;;;;;;5068778;28;20049;-65
2022/11/16 09:46:03;;;;;;;16.37;12.47;;;;;;;;;;5068067;28;20052;-65
2022/11/16 09:48:31;;;;;;;22.13;11.93;;;;;;;;;;5064266;28;20738;-65
2022/11/16 09:51:00;;;;;;;19.33;11.43;;;;;;;;;;5048346;28;20136;-65
2022/11/16 09:53:26;;;;;;;15.90;10.50;;;;;;;;;;5048566;28;20048;-65
2022/11/16 09:55:53;;;;;;;11.43;7.87;;;;;;;;;;5050812;28;20045;-65
2022/11/16 09:58:22;;;;;;;15.57;8.13;;;;;;;;;;5065547;28;20044;-65
2022/11/16 10:00:53;;;;;;;12.33;7.47;;;;;;;;;;5068735;28;20048;-65
2022/11/16 10:03:19;;;;;;;11.63;6.27;;;;;;;;;;5059873;28;20510;-65
2022/11/16 10:05:45;;;;;;;10.13;6.03;;;;;;;;;;5048494;28;20397;-65
2022/11/16 10:08:19;;;;;;;12.17;5.80;;;;;;;;;;5048974;28;20430;-64
2022/11/16 10:10:55;;;;;;;14.87;5.50;;;;;;;;;;5052708;28;20071;-64
2022/11/16 10:13:40;;;;;;;7.67;4.57;;;;;;;;;;5067757;28;20184;-65
2022/11/16 10:16:16;;;;;;;11.17;5.40;;;;;;;;;;5062152;28;20053;-65
2022/11/16 10:19:01;;;;;;;11.47;4.63;;;;;;;;;;5058700;28;20441;-65
2022/11/16 10:21:46;;;;;;;13.50;4.80;;;;;;;;;;5058848;28;20057;-65
2022/11/16 10:24:33;;;;;;;8.17;5.10;;;;;;;;;;5057305;28;20055;-65
2022/11/16 10:27:11;;;;;;;9.47;5.37;;;;;;;;;;5060252;28;20174;-65
2022/11/16 10:29:46;;;;;;;9.07;4.17;;;;;;;;;;5054021;28;20045;-65
2022/11/16 10:32:27;;;;;;;12.90;4.37;;;;;;;;;;5048376;28;20641;-65
2022/11/16 10:34:54;;;;;;;10.40;4.23;;;;;;;;;;5062791;28;20049;-64
2022/11/16 10:37:21;;;;;;;14.77;4.87;;;;;;;;;;5056879;28;20475;-65
2022/11/16 10:39:48;;;;;;;8.30;3.30;;;;;;;;;;5062639;28;20172;-65
2022/11/16 10:42:18;;;;;;;9.33;3.30;;;;;;;;;;5057349;28;20043;-65
2022/11/16 10:44:47;;;;;;;10.03;3.93;;;;;;;;;;5068248;28;20056;-65
2022/11/16 10:47:19;;;;;;;11.03;3.07;;;;;;;;;;5053211;28;20041;-65
2022/11/16 10:49:52;;;;;;;9.97;4.17;;;;;;;;;;5052687;28;20045;-65
2022/11/16 10:52:18;;;;;;;9.57;2.90;;;;;;;;;;5061053;28;20386;-65
2022/11/16 10:54:44;;;;;;;9.80;3.00;;;;;;;;;;5061169;28;20036;-65
2022/11/16 10:57:12;;;;;;;5.90;2.50;;;;;;;;;;5053111;28;20186;-65
2022/11/16 10:59:38;;;;;;;8.03;3.40;;;;;;;;;;5065969;28;20044;-65
2022/11/16 11:02:24;;;;;;;9.33;3.67;;;;;;;;;;5056063;28;20041;-65
2022/11/16 11:05:02;;;;;;;7.50;2.90;;;;;;;;;;5057017;28;20045;-65
2022/11/16 11:07:38;;;;;;;7.43;2.30;;;;;;;;;;5054224;28;20049;-65
2022/11/16 11:10:05;;;;;;;11.37;2.53;;;;;;;;;;5065961;28;20056;-65
2022/11/16 11:12:37;;;;;;;10.73;2.93;;;;;;;;;;5050498;28;20400;-65
2022/11/16 11:15:12;;;;;;;11.10;2.37;;;;;;;;;;5052936;28;20044;-65
2022/11/16 11:17:39;;;;;;;7.57;2.20;;;;;;;;;;5053752;28;20453;-65
2022/11/16 11:20:05;;;;;;;8.00;2.80;;;;;;;;;;5052019;28;20045;-65
2022/11/16 11:22:41;;;;;;;7.83;2.43;;;;;;;;;;5053356;28;20487;-65
2022/11/16 11:25:18;;;;;;;10.10;3.10;;;;;;;;;;5052700;28;20067;-65
2022/11/16 11:27:44;;;;;;;9.27;2.47;;;;;;;;;;5054746;28;20060;-64
2022/11/16 11:30:18;;;;;;;10.10;2.47;;;;;;;;;;5052743;28;20686;-65
2022/11/16 11:32:44;;;;;;;7.83;2.20;;;;;;;;;;5052684;28;20172;-65
2022/11/16 11:35:22;;;;;;;9.33;2.43;;;;;;;;;;5049645;28;20079;-64
2022/11/16 11:37:50;;;;;;;10.33;2.73;;;;;;;;;;5047774;28;20079;-64
2022/11/16 11:40:21;;;;;;;9.30;2.53;;;;;;;;;;5059883;28;20078;-64
2022/11/16 11:42:53;;;;;;;8.63;2.23;;;;;;;;;;5051520;28;20128;-64
2022/11/16 11:45:20;;;;;;;7.37;2.37;;;;;;;;;;5070935;28;20462;-64
2022/11/16 11:47:46;;;;;;;9.07;2.97;;;;;;;;;;5066629;28;20040;-64
2022/11/16 11:50:16;;;;;;;9.13;3.07;;;;;;;;;;5057785;28;20056;-65
2022/11/16 11:52:55;;;;;;;10.03;3.03;;;;;;;;;;5057233;28;20541;-64
2022/11/16 11:55:21;;;;;;;8.00;2.73;;;;;;;;;;5048378;28;20041;-64
2022/11/16 11:57:49;;;;;;;8.03;2.83;;;;;;;;;;5051039;28;20437;-64
2022/11/16 12:00:16;;;;;;;7.37;2.30;;;;;;;;;;5060688;28;20044;-64
2022/11/16 12:03:01;;;;;;;8.03;2.80;;;;;;;;;;5071735;28;20064;-64
2022/11/16 12:05:34;;;;;;;8.20;2.53;;;;;;;;;;5068553;28;20040;-64
2022/11/16 12:08:19;;;;;;;9.30;3.05;;;;;;;;;;5056524;28;20052;-63
2022/11/16 12:10:57;;;;;;;8.67;2.50;;;;;;;;;;5057970;28;20052;-63
2022/11/16 12:13:23;;;;;;;10.80;2.67;;;;;;;;;;5053479;28;20057;-63
2022/11/16 12:16:01;;;;;;;13.10;2.67;;;;;;;;;;5065751;28;20431;-63
2022/11/16 12:18:27;;;;;;;8.87;2.97;;;;;;;;;;5065814;28;20048;-63
2022/11/16 12:20:56;;;;;;;12.27;3.43;;;;;;;;;;5074467;28;20076;-63
2022/11/16 12:23:41;;;;;;;9.83;2.30;;;;;;;;;;5058253;28;20045;-63
2022/11/16 12:26:13;;;;;;;16.50;2.43;;;;;;;;;;5068518;28;20063;-63
2022/11/16 12:28:58;;;;;;;11.07;3.87;;;;;;;;;;5066003;28;20060;-63
2022/11/16 12:31:30;;;;;;;9.93;2.20;;;;;;;;;;5050970;28;20051;-63
2022/11/16 12:33:59;;;;;;;10.30;2.37;;;;;;;;;;5062512;28;20076;-63
2022/11/16 12:36:31;;;;;;;9.43;2.70;;;;;;;;;;5053304;28;20446;-63
2022/11/16 12:39:17;;;;;;;10.00;2.00;;;;;;;;;;5067567;28;20083;-63
2022/11/16 12:42:03;;;;;;;11.43;3.10;;;;;;;;;;5056354;28;20045;-63
2022/11/16 12:44:36;;;;;;;8.83;2.03;;;;;;;;;;5074037;28;20530;-63
2022/11/16 12:47:16;;;;;;;10.75;2.40;;;;;;;;;;5070457;28;20096;-63
2022/11/16 12:49:48;;;;;;;9.77;2.53;;;;;;;;;;5058607;28;20048;-63
2022/11/16 12:52:36;;;;;;;9.07;2.37;;;;;;;;;;5070085;28;20052;-63
2022/11/16 12:55:16;;;;;;;10.70;2.60;;;;;;;;;;5054206;28;20517;-62
2022/11/16 12:57:58;;;;;;;11.67;2.43;;;;;;;;;;5064644;28;20135;-62
2022/11/16 13:00:24;;;;;;;9.60;2.10;;;;;;;;;;5069388;28;20053;-62
2022/11/16 13:02:52;;;;;;;9.57;2.00;;;;;;;;;;5067779;28;20047;-62
2022/11/16 13:05:31;;;;;;;10.00;1.93;;;;;;;;;;5053719;28;20048;-62
2022/11/16 13:08:02;;;;;;;10.73;2.20;;;;;;;;;;5057299;28;20045;-62
2022/11/16 13:10:34;;;;;;;15.53;3.10;;;;;;;;;;5064600;28;20044;-62
2022/11/16 13:13:04;;;;;;;10.27;1.90;;;;;;;;;;5066753;28;20062;-63
2022/11/16 13:15:36;;;;;;;8.90;2.37;;;;;;;;;;5063060;28;20064;-63
2022/11/16 13:18:03;;;;;;;7.73;2.13;;;;;;;;;;5057225;28;20247;-63
2022/11/16 13:20:56;;;;;;;15.17;2.50;;;;;;;;;;5059972;28;20040;-63
2022/11/16 13:23:24;;;;;;;17.07;2.60;;;;;;;;;;5059384;28;20056;-63
2022/11/16 13:25:54;;;;;;;7.93;1.83;;;;;;;;;;5069305;28;20043;-63
2022/11/16 13:28:34;;;;;;;8.43;2.17;;;;;;;;;;5069995;28;20045;-63
2022/11/16 13:31:18;;;;;;;9.03;2.13;;;;;;;;;;5054040;28;20051;-63
2022/11/16 13:33:47;;;;;;;5.43;1.77;;;;;;;;;;5068838;28;20048;-61
2022/11/16 13:36:31;;;;;;;9.33;1.90;;;;;;;;;;5067338;28;20119;-61
2022/11/16 13:38:58;;;;;;;8.13;1.60;;;;;;;;;;5051026;28;20045;-61
2022/11/16 13:41:34;;;;;;;9.83;2.67;;;;;;;;;;5059694;28;20075;-60
2022/11/16 13:44:01;;;;;;;8.33;2.43;;;;;;;;;;5067077;28;20433;-61
2022/11/16 13:46:39;;;;;;;11.13;2.30;;;;;;;;;;5059214;28;20115;-60
2022/11/16 13:49:05;;;;;;;11.37;2.50;;;;;;;;;;5050662;28;20044;-63
2022/11/16 13:51:31;;;;;;;9.50;2.70;;;;;;;;;;5061423;28;20048;-61
2022/11/16 13:53:57;;;;;;;8.73;1.87;;;;;;;;;;5057939;28;20048;-61
2022/11/16 13:56:24;;;;;;;9.00;2.87;;;;;;;;;;5059651;28;20126;-61
2022/11/16 13:58:51;;;;;;;10.60;2.57;;;;;;;;;;5067295;28;20056;-61
2022/11/16 14:01:17;;;;;;;11.90;2.20;;;;;;;;;;5056837;28;20049;-61
2022/11/16 14:03:43;;;;;;;8.73;2.20;;;;;;;;;;5064704;28;20133;-60
2022/11/16 14:06:13;;;;;;;10.87;2.40;;;;;;;;;;5047972;28;20478;-61
2022/11/16 14:08:39;;;;;;;9.43;2.07;;;;;;;;;;5055819;28;20063;-60
2022/11/16 14:11:25;;;;;;;12.37;2.03;;;;;;;;;;5051524;28;20048;-61
2022/11/16 14:13:51;;;;;;;10.40;2.60;;;;;;;;;;5051815;28;20057;-60
2022/11/16 14:16:20;;;;;;;12.60;2.63;;;;;;;;;;5064975;28;20041;-61
2022/11/16 14:18:59;;;;;;;13.97;2.87;;;;;;;;;;5067996;28;20418;-61
2022/11/16 14:21:47;;;;;;;8.60;2.30;;;;;;;;;;5068353;28;20053;-61
2022/11/16 14:24:16;;;;;;;12.33;2.20;;;;;;;;;;5056575;28;20045;-61
2022/11/16 14:26:52;;;;;;;8.50;2.23;;;;;;;;;;5064413;28;20067;-61
2022/11/16 14:29:30;;;;;;;12.97;2.10;;;;;;;;;;5068059;28;20097;-61
2022/11/16 14:31:57;;;;;;;10.97;2.00;;;;;;;;;;5069676;28;20055;-61
2022/11/16 14:34:27;;;;;;;11.20;3.17;;;;;;;;;;5065747;28;20044;-60
2022/11/16 14:36:53;;;;;;;6.63;1.97;;;;;;;;;;5066947;28;20173;-61
2022/11/16 14:39:28;;;;;;;12.07;2.00;;;;;;;;;;5068780;28;20063;-61
2022/11/16 14:41:56;;;;;;;14.00;2.90;;;;;;;;;;5069905;28;20502;-61
2022/11/16 14:44:25;;;;;;;8.83;2.10;;;;;;;;;;5049639;28;20399;-61
2022/11/16 14:46:52;;;;;;;8.40;2.03;;;;;;;;;;5056679;28;20049;-60
2022/11/16 14:49:20;;;;;;;8.10;2.10;;;;;;;;;;5055684;28;20458;-61
2022/11/16 14:51:51;;;;;;;10.83;2.60;;;;;;;;;;5048144;28;20045;-61
2022/11/16 14:54:27;;;;;;;13.13;2.83;;;;;;;;;;5047047;28;20140;-60
2022/11/16 14:57:22;;;;;;;9.77;1.80;;;;;;;;;;5046423;28;20102;-61
2022/11/16 14:59:48;;;;;;;9.47;2.30;;;;;;;;;;5042184;28;20052;-60
2022/11/16 15:02:17;;;;;;;8.37;2.27;;;;;;;;;;5048203;28;20111;-60
2022/11/16 15:04:43;;;;;;;11.60;2.47;;;;;;;;;;5067066;28;20040;-62
2022/11/16 15:07:11;;;;;;;15.03;2.57;;;;;;;;;;5067782;28;20055;-61
2022/11/16 15:09:39;;;;;;;10.43;1.93;;;;;;;;;;5068821;28;20060;-61
2022/11/16 15:14:54;;;;;;;8.07;1.80;;;;;;;;;;5067326;28;20080;-60
2022/11/16 15:17:24;;;;;;;11.33;2.20;;;;;;;;;;5066894;28;20044;-60
2022/11/16 15:19:55;;;;;;;10.83;2.30;;;;;;;;;;5068700;28;20052;-60
2022/11/16 15:22:21;;;;;;;8.77;1.90;;;;;;;;;;5067422;28;20056;-60
2022/11/16 15:24:54;;;;;;;12.03;2.40;;;;;;;;;;5068480;28;20637;-60